Pagina principale
METAR-TAF:

METAR-TAF

Aeroporti :

Aeroporto di Pola

Pola, Croazia

latitudine: 44-54N, longitudine: 013-55E, altezza: 63 m

Osservazione

Il bollettino è stato emesso 24 minuti fa, alle 14:30 UTC
Vento 4 kt da ovest
Temperature 12°C
Umidità 76%
Pressione 1014 hPa
Visibilità 10 km o più
nessuna nube inferiore a 1500 m e nessun cumulonembo

METAR: LDPL 061430Z 27004KT CAVOK 12/08 Q1014 NOSIG

Ora: 15:54 (14:54 UTC)

Previsione

Il bollettino è stato emesso 3 ore e 29 minuti fa, alle 11:25 UTC
Previsione valida dal 06 alle 12 UTC al 07 alle 12 UTC
Vento 2 kt da direzioni variabili
Visibilità 10 km o più
Nubi sparse ad un'altezza di 1500 ft
Probabilità 30% :
Temporaneamente
dal 06 alle 18 UTC al 07 alle 12 UTC
Vento 8 kt da est/nord-est
Nuvoloso ad un'altezza di 1000 ft
pioggia

TAF: LDPL 061125Z 0612/0712 VRB02KT 9999 SCT015 TX13/0613Z TN06/0703Z PROB30 TEMPO 0618/0712 06008KT RA BKN010

Osservazioni e previsioni meteorologiche di più di 4000 aeroporti (messaggi METAR e TAF).

Le stazioni disponibili sono rappresentate dai dischi gialli e rossi sulla carta.

Puntare il mouse per vedere il nome della stazione.

Clicca sopra per visualizzare le osservazioni e previsioni meteorologiche.

Per cambiare la mappa : fare clic sui pulsanti verdi con una croce nera per ingrandire, il pulsante verde con un trattino per diminuire, o sulla freccia verde per le mappe adiacenti.


METAR-TAF: